sensor_id;sensor_type;location;lat;lon;timestamp;P1;durP1;ratioP1;P2;durP2;ratioP2
67715;SDS011;54508;43.238;25.306;2023-03-23T09:56:38;11.40;;;6.30;;
67715;SDS011;54508;43.238;25.306;2023-03-23T10:01:42;10.73;;;5.55;;
67715;SDS011;54508;43.238;25.306;2023-03-23T10:07:12;11.32;;;5.60;;
67715;SDS011;54508;43.238;25.306;2023-03-23T10:09:41;13.10;;;6.35;;
67715;SDS011;54508;43.238;25.306;2023-03-23T10:12:14;15.52;;;6.13;;
67715;SDS011;54508;43.238;25.306;2023-03-23T10:17:26;9.25;;;6.00;;
67715;SDS011;54508;43.238;25.306;2023-03-23T10:25:41;15.18;;;5.80;;
67715;SDS011;54508;43.238;25.306;2023-03-23T10:28:12;11.13;;;5.82;;
67715;SDS011;54508;43.238;25.306;2023-03-23T10:30:40;27.33;;;6.55;;
67715;SDS011;54508;43.238;25.306;2023-03-23T10:33:18;15.98;;;6.57;;
67715;SDS011;54508;43.238;25.306;2023-03-23T10:39:23;21.90;;;7.25;;
67715;SDS011;54508;43.238;25.306;2023-03-23T10:41:39;23.30;;;7.15;;
67715;SDS011;54508;43.238;25.306;2023-03-23T10:46:59;23.55;;;6.63;;
67715;SDS011;54508;43.238;25.306;2023-03-23T10:49:45;19.80;;;7.22;;
67715;SDS011;54508;43.238;25.306;2023-03-23T10:52:38;25.25;;;6.45;;
67715;SDS011;54508;43.238;25.306;2023-03-23T10:55:13;18.25;;;6.35;;
67715;SDS011;54508;43.238;25.306;2023-03-23T10:57:47;17.77;;;6.35;;
67715;SDS011;54508;43.238;25.306;2023-03-23T11:00:25;14.07;;;6.25;;
67715;SDS011;54508;43.238;25.306;2023-03-23T11:03:17;18.38;;;6.68;;
67715;SDS011;54508;43.238;25.306;2023-03-23T11:05:57;16.95;;;6.40;;
67715;SDS011;54508;43.238;25.306;2023-03-23T11:08:25;11.85;;;6.75;;
67715;SDS011;54508;43.238;25.306;2023-03-23T11:10:58;16.35;;;6.40;;
67715;SDS011;54508;43.238;25.306;2023-03-23T11:13:29;14.05;;;6.53;;
67715;SDS011;54508;43.238;25.306;2023-03-23T11:15:57;13.23;;;5.88;;
67715;SDS011;54508;43.238;25.306;2023-03-23T11:18:34;15.67;;;6.60;;
67715;SDS011;54508;43.238;25.306;2023-03-23T11:21:11;13.50;;;5.93;;
67715;SDS011;54508;43.238;25.306;2023-03-23T11:23:41;17.17;;;6.15;;
67715;SDS011;54508;43.238;25.306;2023-03-23T11:31:39;10.47;;;6.13;;
67715;SDS011;54508;43.238;25.306;2023-03-23T11:36:41;13.70;;;6.03;;
67715;SDS011;54508;43.238;25.306;2023-03-23T11:39:26;15.77;;;6.63;;
67715;SDS011;54508;43.238;25.306;2023-03-23T11:41:54;12.00;;;7.43;;
67715;SDS011;54508;43.238;25.306;2023-03-23T11:44:21;12.33;;;6.30;;
67715;SDS011;54508;43.238;25.306;2023-03-23T11:52:34;16.23;;;6.90;;
67715;SDS011;54508;43.238;25.306;2023-03-23T11:55:11;12.32;;;6.53;;
67715;SDS011;54508;43.238;25.306;2023-03-23T11:57:43;11.67;;;6.67;;
67715;SDS011;54508;43.238;25.306;2023-03-23T12:00:16;14.30;;;6.55;;
67715;SDS011;54508;43.238;25.306;2023-03-23T12:16:41;16.45;;;6.50;;
67715;SDS011;54508;43.238;25.306;2023-03-23T12:28:04;27.83;;;7.20;;
67715;SDS011;54508;43.238;25.306;2023-03-23T12:46:11;18.65;;;6.40;;
67715;SDS011;54508;43.238;25.306;2023-03-23T12:57:04;17.30;;;6.78;;
67715;SDS011;54508;43.238;25.306;2023-03-23T13:04:54;10.80;;;6.22;;
67715;SDS011;54508;43.238;25.306;2023-03-23T13:07:35;18.90;;;6.50;;
67715;SDS011;54508;43.238;25.306;2023-03-23T13:10:21;18.55;;;6.82;;
67715;SDS011;54508;43.238;25.306;2023-03-23T13:12:49;14.38;;;6.55;;
67715;SDS011;54508;43.238;25.306;2023-03-23T13:20:51;13.07;;;7.35;;
67715;SDS011;54508;43.238;25.306;2023-03-23T13:23:22;16.55;;;6.80;;
67715;SDS011;54508;43.238;25.306;2023-03-23T13:28:47;21.93;;;6.60;;
67715;SDS011;54508;43.238;25.306;2023-03-23T13:31:25;12.82;;;6.32;;
67715;SDS011;54508;43.238;25.306;2023-03-23T13:33:59;17.08;;;7.20;;
67715;SDS011;54508;43.238;25.306;2023-03-23T13:39:26;18.48;;;7.88;;
67715;SDS011;54508;43.238;25.306;2023-03-23T14:05:51;25.45;;;8.80;;
67715;SDS011;54508;43.238;25.306;2023-03-23T14:11:09;20.80;;;8.10;;
67715;SDS011;54508;43.238;25.306;2023-03-23T14:18:41;17.42;;;8.10;;
67715;SDS011;54508;43.238;25.306;2023-03-23T14:21:21;24.33;;;7.93;;
67715;SDS011;54508;43.238;25.306;2023-03-23T14:23:48;20.40;;;7.50;;
67715;SDS011;54508;43.238;25.306;2023-03-23T14:26:18;16.40;;;6.83;;
67715;SDS011;54508;43.238;25.306;2023-03-23T14:28:46;18.65;;;6.82;;
67715;SDS011;54508;43.238;25.306;2023-03-23T14:33:48;25.42;;;7.68;;
67715;SDS011;54508;43.238;25.306;2023-03-23T14:36:19;31.77;;;7.90;;
67715;SDS011;54508;43.238;25.306;2023-03-23T14:38:46;22.43;;;8.70;;
67715;SDS011;54508;43.238;25.306;2023-03-23T14:41:11;25.15;;;7.57;;
67715;SDS011;54508;43.238;25.306;2023-03-23T14:43:38;24.65;;;8.10;;
67715;SDS011;54508;43.238;25.306;2023-03-23T14:46:05;20.08;;;8.05;;
67715;SDS011;54508;43.238;25.306;2023-03-23T14:48:32;22.60;;;7.97;;
67715;SDS011;54508;43.238;25.306;2023-03-23T14:50:58;22.80;;;7.40;;
67715;SDS011;54508;43.238;25.306;2023-03-23T14:53:34;27.13;;;7.82;;
67715;SDS011;54508;43.238;25.306;2023-03-23T14:56:12;19.58;;;7.90;;
67715;SDS011;54508;43.238;25.306;2023-03-23T14:58:43;26.98;;;8.00;;
67715;SDS011;54508;43.238;25.306;2023-03-23T15:01:10;21.70;;;7.80;;
67715;SDS011;54508;43.238;25.306;2023-03-23T15:03:40;20.63;;;7.93;;
67715;SDS011;54508;43.238;25.306;2023-03-23T15:06:15;33.17;;;8.30;;
67715;SDS011;54508;43.238;25.306;2023-03-23T15:08:42;23.15;;;7.40;;
67715;SDS011;54508;43.238;25.306;2023-03-23T15:11:12;17.05;;;8.15;;
67715;SDS011;54508;43.238;25.306;2023-03-23T15:13:46;25.97;;;9.23;;
67715;SDS011;54508;43.238;25.306;2023-03-23T15:16:21;30.88;;;10.30;;
67715;SDS011;54508;43.238;25.306;2023-03-23T15:21:26;26.80;;;11.27;;
67715;SDS011;54508;43.238;25.306;2023-03-23T15:23:52;24.38;;;10.07;;
67715;SDS011;54508;43.238;25.306;2023-03-23T15:26:23;25.60;;;10.20;;
67715;SDS011;54508;43.238;25.306;2023-03-23T15:29:00;27.27;;;9.95;;
67715;SDS011;54508;43.238;25.306;2023-03-23T15:34:35;20.15;;;9.38;;
67715;SDS011;54508;43.238;25.306;2023-03-23T15:37:17;23.93;;;9.40;;
67715;SDS011;54508;43.238;25.306;2023-03-23T15:39:45;19.38;;;9.43;;
67715;SDS011;54508;43.238;25.306;2023-03-23T15:42:31;28.45;;;8.77;;
67715;SDS011;54508;43.238;25.306;2023-03-23T15:45:50;25.60;;;9.40;;
67715;SDS011;54508;43.238;25.306;2023-03-23T15:52:34;17.27;;;8.90;;
67715;SDS011;54508;43.238;25.306;2023-03-23T15:55:00;20.47;;;8.43;;
67715;SDS011;54508;43.238;25.306;2023-03-23T15:57:25;22.90;;;9.03;;
67715;SDS011;54508;43.238;25.306;2023-03-23T15:59:51;18.25;;;8.63;;
67715;SDS011;54508;43.238;25.306;2023-03-23T16:02:18;20.93;;;8.43;;
67715;SDS011;54508;43.238;25.306;2023-03-23T16:04:46;19.38;;;8.85;;
67715;SDS011;54508;43.238;25.306;2023-03-23T16:07:12;16.17;;;8.73;;
67715;SDS011;54508;43.238;25.306;2023-03-23T16:09:38;18.05;;;8.60;;
67715;SDS011;54508;43.238;25.306;2023-03-23T16:12:11;21.13;;;8.45;;
67715;SDS011;54508;43.238;25.306;2023-03-23T16:14:37;17.50;;;8.53;;
67715;SDS011;54508;43.238;25.306;2023-03-23T16:17:04;15.68;;;8.50;;
67715;SDS011;54508;43.238;25.306;2023-03-23T16:19:29;16.92;;;9.10;;
67715;SDS011;54508;43.238;25.306;2023-03-23T16:21:55;14.73;;;7.63;;
67715;SDS011;54508;43.238;25.306;2023-03-23T16:24:21;13.65;;;7.95;;
67715;SDS011;54508;43.238;25.306;2023-03-23T16:26:46;14.53;;;8.00;;
67715;SDS011;54508;43.238;25.306;2023-03-23T16:29:13;16.27;;;8.30;;
67715;SDS011;54508;43.238;25.306;2023-03-23T16:31:42;17.75;;;7.72;;
67715;SDS011;54508;43.238;25.306;2023-03-23T16:34:07;11.68;;;7.05;;
67715;SDS011;54508;43.238;25.306;2023-03-23T16:36:33;15.63;;;7.50;;
67715;SDS011;54508;43.238;25.306;2023-03-23T16:38:59;14.30;;;7.75;;
67715;SDS011;54508;43.238;25.306;2023-03-23T16:41:25;12.95;;;8.27;;
67715;SDS011;54508;43.238;25.306;2023-03-23T16:43:50;19.13;;;8.00;;
67715;SDS011;54508;43.238;25.306;2023-03-23T16:46:16;15.70;;;8.30;;
67715;SDS011;54508;43.238;25.306;2023-03-23T16:48:41;14.43;;;7.80;;
67715;SDS011;54508;43.238;25.306;2023-03-23T16:51:07;20.75;;;8.20;;
67715;SDS011;54508;43.238;25.306;2023-03-23T16:53:32;13.83;;;7.60;;
67715;SDS011;54508;43.238;25.306;2023-03-23T16:55:58;11.88;;;7.70;;
67715;SDS011;54508;43.238;25.306;2023-03-23T16:58:23;13.77;;;7.67;;
67715;SDS011;54508;43.238;25.306;2023-03-23T17:00:49;8.50;;;7.00;;
67715;SDS011;54508;43.238;25.306;2023-03-23T17:03:17;12.23;;;7.57;;
67715;SDS011;54508;43.238;25.306;2023-03-23T17:05:43;14.95;;;6.88;;
67715;SDS011;54508;43.238;25.306;2023-03-23T17:08:09;10.43;;;7.05;;
67715;SDS011;54508;43.238;25.306;2023-03-23T17:10:36;14.45;;;7.75;;
67715;SDS011;54508;43.238;25.306;2023-03-23T17:13:03;15.10;;;7.65;;
67715;SDS011;54508;43.238;25.306;2023-03-23T17:15:28;15.93;;;7.37;;
67715;SDS011;54508;43.238;25.306;2023-03-23T17:17:53;14.90;;;7.38;;
67715;SDS011;54508;43.238;25.306;2023-03-23T17:20:19;19.27;;;7.83;;
67715;SDS011;54508;43.238;25.306;2023-03-23T17:22:45;16.90;;;8.07;;
67715;SDS011;54508;43.238;25.306;2023-03-23T17:25:11;18.07;;;7.27;;
67715;SDS011;54508;43.238;25.306;2023-03-23T17:27:37;13.95;;;8.10;;
67715;SDS011;54508;43.238;25.306;2023-03-23T17:30:03;12.27;;;7.87;;
67715;SDS011;54508;43.238;25.306;2023-03-23T17:32:30;13.30;;;7.85;;
67715;SDS011;54508;43.238;25.306;2023-03-23T17:34:55;17.33;;;7.90;;
67715;SDS011;54508;43.238;25.306;2023-03-23T17:37:21;15.15;;;8.80;;
67715;SDS011;54508;43.238;25.306;2023-03-23T17:39:46;11.67;;;7.63;;
67715;SDS011;54508;43.238;25.306;2023-03-23T17:42:12;11.05;;;7.45;;
67715;SDS011;54508;43.238;25.306;2023-03-23T17:44:38;11.95;;;8.05;;
67715;SDS011;54508;43.238;25.306;2023-03-23T17:47:03;13.80;;;7.93;;
67715;SDS011;54508;43.238;25.306;2023-03-23T17:49:29;12.20;;;7.85;;
67715;SDS011;54508;43.238;25.306;2023-03-23T17:51:57;16.87;;;7.77;;
67715;SDS011;54508;43.238;25.306;2023-03-23T17:54:24;15.15;;;7.97;;
67715;SDS011;54508;43.238;25.306;2023-03-23T17:56:50;11.38;;;7.43;;
67715;SDS011;54508;43.238;25.306;2023-03-23T17:59:17;16.27;;;8.13;;
67715;SDS011;54508;43.238;25.306;2023-03-23T18:01:42;10.20;;;7.15;;
67715;SDS011;54508;43.238;25.306;2023-03-23T18:04:08;13.13;;;7.87;;
67715;SDS011;54508;43.238;25.306;2023-03-23T18:06:40;12.20;;;8.20;;
67715;SDS011;54508;43.238;25.306;2023-03-23T18:09:05;13.33;;;7.57;;
67715;SDS011;54508;43.238;25.306;2023-03-23T18:11:30;10.43;;;7.53;;
67715;SDS011;54508;43.238;25.306;2023-03-23T18:13:56;14.05;;;8.60;;
67715;SDS011;54508;43.238;25.306;2023-03-23T18:16:22;10.67;;;7.93;;
67715;SDS011;54508;43.238;25.306;2023-03-23T18:18:47;14.52;;;7.88;;
67715;SDS011;54508;43.238;25.306;2023-03-23T18:21:13;15.67;;;8.43;;
67715;SDS011;54508;43.238;25.306;2023-03-23T18:23:38;11.93;;;8.17;;
67715;SDS011;54508;43.238;25.306;2023-03-23T18:26:05;12.60;;;7.93;;
67715;SDS011;54508;43.238;25.306;2023-03-23T18:28:32;12.48;;;8.18;;
67715;SDS011;54508;43.238;25.306;2023-03-23T18:31:01;11.50;;;8.05;;
67715;SDS011;54508;43.238;25.306;2023-03-23T18:33:32;15.75;;;8.43;;
67715;SDS011;54508;43.238;25.306;2023-03-23T18:35:58;11.65;;;7.95;;
67715;SDS011;54508;43.238;25.306;2023-03-23T18:38:24;15.35;;;8.63;;
67715;SDS011;54508;43.238;25.306;2023-03-23T18:40:50;15.68;;;8.77;;
67715;SDS011;54508;43.238;25.306;2023-03-23T18:43:16;12.20;;;8.43;;
67715;SDS011;54508;43.238;25.306;2023-03-23T18:45:46;11.93;;;8.43;;
67715;SDS011;54508;43.238;25.306;2023-03-23T18:48:15;13.35;;;8.13;;
67715;SDS011;54508;43.238;25.306;2023-03-23T18:50:44;13.55;;;8.75;;
67715;SDS011;54508;43.238;25.306;2023-03-23T18:53:18;11.82;;;8.30;;
67715;SDS011;54508;43.238;25.306;2023-03-23T18:55:44;13.45;;;7.75;;
67715;SDS011;54508;43.238;25.306;2023-03-23T18:58:10;12.73;;;8.57;;
67715;SDS011;54508;43.238;25.306;2023-03-23T19:00:37;13.15;;;8.50;;
67715;SDS011;54508;43.238;25.306;2023-03-23T19:03:02;13.43;;;8.95;;
67715;SDS011;54508;43.238;25.306;2023-03-23T19:05:30;11.95;;;8.13;;
67715;SDS011;54508;43.238;25.306;2023-03-23T19:07:58;10.63;;;8.38;;
67715;SDS011;54508;43.238;25.306;2023-03-23T19:10:24;12.73;;;8.18;;
67715;SDS011;54508;43.238;25.306;2023-03-23T19:12:50;11.65;;;8.23;;
67715;SDS011;54508;43.238;25.306;2023-03-23T19:15:16;15.03;;;8.80;;
67715;SDS011;54508;43.238;25.306;2023-03-23T19:17:42;11.88;;;8.82;;
67715;SDS011;54508;43.238;25.306;2023-03-23T19:20:08;12.88;;;8.98;;
67715;SDS011;54508;43.238;25.306;2023-03-23T19:22:40;11.02;;;8.77;;
67715;SDS011;54508;43.238;25.306;2023-03-23T19:25:06;13.40;;;8.38;;
67715;SDS011;54508;43.238;25.306;2023-03-23T19:27:33;12.05;;;8.63;;
67715;SDS011;54508;43.238;25.306;2023-03-23T19:29:59;12.45;;;8.57;;
67715;SDS011;54508;43.238;25.306;2023-03-23T19:32:24;10.52;;;9.10;;
67715;SDS011;54508;43.238;25.306;2023-03-23T19:34:50;12.40;;;8.67;;
67715;SDS011;54508;43.238;25.306;2023-03-23T19:37:16;10.43;;;9.32;;
67715;SDS011;54508;43.238;25.306;2023-03-23T19:39:41;13.30;;;8.23;;
67715;SDS011;54508;43.238;25.306;2023-03-23T19:42:07;11.17;;;8.57;;
67715;SDS011;54508;43.238;25.306;2023-03-23T19:44:32;12.43;;;8.60;;
67715;SDS011;54508;43.238;25.306;2023-03-23T19:46:58;12.77;;;9.02;;
67715;SDS011;54508;43.238;25.306;2023-03-23T19:49:24;12.90;;;8.83;;
67715;SDS011;54508;43.238;25.306;2023-03-23T19:51:50;13.45;;;9.10;;
67715;SDS011;54508;43.238;25.306;2023-03-23T19:54:16;13.45;;;9.00;;
67715;SDS011;54508;43.238;25.306;2023-03-23T19:56:42;13.67;;;8.67;;
67715;SDS011;54508;43.238;25.306;2023-03-23T19:59:08;11.75;;;8.90;;
67715;SDS011;54508;43.238;25.306;2023-03-23T20:01:38;10.90;;;9.25;;
67715;SDS011;54508;43.238;25.306;2023-03-23T20:04:05;12.25;;;9.00;;
67715;SDS011;54508;43.238;25.306;2023-03-23T20:06:30;12.88;;;9.93;;
67715;SDS011;54508;43.238;25.306;2023-03-23T20:08:58;11.77;;;9.02;;
67715;SDS011;54508;43.238;25.306;2023-03-23T20:11:24;12.63;;;9.00;;
67715;SDS011;54508;43.238;25.306;2023-03-23T20:13:49;12.47;;;9.37;;
67715;SDS011;54508;43.238;25.306;2023-03-23T20:16:15;14.03;;;9.23;;
67715;SDS011;54508;43.238;25.306;2023-03-23T20:18:41;11.35;;;8.85;;
67715;SDS011;54508;43.238;25.306;2023-03-23T20:21:08;12.27;;;9.60;;
67715;SDS011;54508;43.238;25.306;2023-03-23T20:23:35;11.77;;;8.65;;
67715;SDS011;54508;43.238;25.306;2023-03-23T20:26:03;12.18;;;9.25;;
67715;SDS011;54508;43.238;25.306;2023-03-23T20:28:39;10.77;;;8.93;;
67715;SDS011;54508;43.238;25.306;2023-03-23T20:33:34;12.07;;;8.63;;
67715;SDS011;54508;43.238;25.306;2023-03-23T20:36:00;12.20;;;9.07;;
67715;SDS011;54508;43.238;25.306;2023-03-23T20:38:26;10.88;;;9.05;;
67715;SDS011;54508;43.238;25.306;2023-03-23T20:40:54;10.98;;;8.98;;
67715;SDS011;54508;43.238;25.306;2023-03-23T20:43:22;11.95;;;8.80;;
67715;SDS011;54508;43.238;25.306;2023-03-23T20:45:53;12.65;;;8.93;;
67715;SDS011;54508;43.238;25.306;2023-03-23T20:48:25;12.68;;;8.27;;
67715;SDS011;54508;43.238;25.306;2023-03-23T20:50:55;10.20;;;8.35;;
67715;SDS011;54508;43.238;25.306;2023-03-23T20:53:22;11.63;;;8.40;;
67715;SDS011;54508;43.238;25.306;2023-03-23T20:55:48;14.70;;;8.65;;
67715;SDS011;54508;43.238;25.306;2023-03-23T20:58:14;9.18;;;8.13;;
67715;SDS011;54508;43.238;25.306;2023-03-23T21:00:40;11.50;;;8.40;;
67715;SDS011;54508;43.238;25.306;2023-03-23T21:03:06;12.43;;;8.40;;
67715;SDS011;54508;43.238;25.306;2023-03-23T21:05:33;12.32;;;7.75;;
67715;SDS011;54508;43.238;25.306;2023-03-23T21:07:59;11.13;;;8.60;;
67715;SDS011;54508;43.238;25.306;2023-03-23T21:10:25;13.40;;;8.05;;
67715;SDS011;54508;43.238;25.306;2023-03-23T21:12:52;9.20;;;8.05;;
67715;SDS011;54508;43.238;25.306;2023-03-23T21:15:18;10.95;;;8.63;;
67715;SDS011;54508;43.238;25.306;2023-03-23T21:17:44;10.43;;;7.97;;
67715;SDS011;54508;43.238;25.306;2023-03-23T21:20:10;9.55;;;7.38;;
67715;SDS011;54508;43.238;25.306;2023-03-23T21:22:36;10.32;;;8.50;;
67715;SDS011;54508;43.238;25.306;2023-03-23T21:25:02;10.23;;;7.97;;
67715;SDS011;54508;43.238;25.306;2023-03-23T21:27:28;11.93;;;8.20;;
67715;SDS011;54508;43.238;25.306;2023-03-23T21:29:57;11.10;;;7.82;;
67715;SDS011;54508;43.238;25.306;2023-03-23T21:32:25;8.43;;;7.27;;
67715;SDS011;54508;43.238;25.306;2023-03-23T21:34:51;9.07;;;7.95;;
67715;SDS011;54508;43.238;25.306;2023-03-23T21:37:17;8.18;;;7.30;;
67715;SDS011;54508;43.238;25.306;2023-03-23T21:39:43;10.63;;;7.83;;
67715;SDS011;54508;43.238;25.306;2023-03-23T21:42:09;12.73;;;8.18;;
67715;SDS011;54508;43.238;25.306;2023-03-23T21:44:38;11.05;;;7.65;;
67715;SDS011;54508;43.238;25.306;2023-03-23T21:47:06;8.57;;;7.68;;
67715;SDS011;54508;43.238;25.306;2023-03-23T21:49:32;10.50;;;7.82;;
67715;SDS011;54508;43.238;25.306;2023-03-23T21:51:57;11.55;;;8.10;;
67715;SDS011;54508;43.238;25.306;2023-03-23T21:54:23;9.00;;;7.20;;
67715;SDS011;54508;43.238;25.306;2023-03-23T21:56:48;10.30;;;7.90;;
67715;SDS011;54508;43.238;25.306;2023-03-23T21:59:14;12.10;;;8.20;;
67715;SDS011;54508;43.238;25.306;2023-03-23T22:01:40;10.90;;;8.10;;
67715;SDS011;54508;43.238;25.306;2023-03-23T22:04:06;10.57;;;7.70;;
67715;SDS011;54508;43.238;25.306;2023-03-23T22:06:31;9.37;;;7.73;;
67715;SDS011;54508;43.238;25.306;2023-03-23T22:08:59;10.35;;;7.63;;
67715;SDS011;54508;43.238;25.306;2023-03-23T22:11:27;9.57;;;7.32;;
67715;SDS011;54508;43.238;25.306;2023-03-23T22:13:55;9.60;;;7.35;;
67715;SDS011;54508;43.238;25.306;2023-03-23T22:16:21;8.75;;;7.25;;
67715;SDS011;54508;43.238;25.306;2023-03-23T22:18:48;10.57;;;7.37;;
67715;SDS011;54508;43.238;25.306;2023-03-23T22:21:15;10.75;;;7.50;;
67715;SDS011;54508;43.238;25.306;2023-03-23T22:23:42;9.90;;;7.50;;
67715;SDS011;54508;43.238;25.306;2023-03-23T22:26:08;9.43;;;7.25;;
67715;SDS011;54508;43.238;25.306;2023-03-23T22:28:34;9.30;;;6.70;;
67715;SDS011;54508;43.238;25.306;2023-03-23T22:31:04;11.13;;;7.22;;
67715;SDS011;54508;43.238;25.306;2023-03-23T22:33:32;11.05;;;7.43;;
67715;SDS011;54508;43.238;25.306;2023-03-23T22:35:58;9.25;;;7.22;;
67715;SDS011;54508;43.238;25.306;2023-03-23T22:38:30;8.93;;;7.40;;
67715;SDS011;54508;43.238;25.306;2023-03-23T22:40:59;9.23;;;6.77;;
67715;SDS011;54508;43.238;25.306;2023-03-23T22:43:28;9.27;;;6.82;;
67715;SDS011;54508;43.238;25.306;2023-03-23T22:45:54;10.13;;;7.10;;
67715;SDS011;54508;43.238;25.306;2023-03-23T22:48:20;9.73;;;6.90;;
67715;SDS011;54508;43.238;25.306;2023-03-23T22:50:47;8.10;;;6.50;;
67715;SDS011;54508;43.238;25.306;2023-03-23T22:53:14;9.98;;;7.00;;
67715;SDS011;54508;43.238;25.306;2023-03-23T22:55:44;8.75;;;7.30;;
67715;SDS011;54508;43.238;25.306;2023-03-23T22:58:11;12.90;;;7.05;;
67715;SDS011;54508;43.238;25.306;2023-03-23T23:00:37;7.67;;;6.70;;
67715;SDS011;54508;43.238;25.306;2023-03-23T23:03:04;11.23;;;6.68;;
67715;SDS011;54508;43.238;25.306;2023-03-23T23:05:30;10.52;;;7.00;;
67715;SDS011;54508;43.238;25.306;2023-03-23T23:07:56;9.97;;;7.33;;
67715;SDS011;54508;43.238;25.306;2023-03-23T23:10:21;8.00;;;6.90;;
67715;SDS011;54508;43.238;25.306;2023-03-23T23:12:47;10.30;;;6.97;;
67715;SDS011;54508;43.238;25.306;2023-03-23T23:15:12;8.35;;;6.90;;
67715;SDS011;54508;43.238;25.306;2023-03-23T23:17:38;8.93;;;6.82;;
67715;SDS011;54508;43.238;25.306;2023-03-23T23:20:05;8.38;;;6.30;;
67715;SDS011;54508;43.238;25.306;2023-03-23T23:22:32;11.52;;;6.95;;
67715;SDS011;54508;43.238;25.306;2023-03-23T23:24:58;10.15;;;6.80;;
67715;SDS011;54508;43.238;25.306;2023-03-23T23:27:24;6.63;;;5.78;;
67715;SDS011;54508;43.238;25.306;2023-03-23T23:29:49;10.47;;;7.07;;
67715;SDS011;54508;43.238;25.306;2023-03-23T23:32:15;8.02;;;6.65;;
67715;SDS011;54508;43.238;25.306;2023-03-23T23:34:41;8.97;;;6.63;;
67715;SDS011;54508;43.238;25.306;2023-03-23T23:37:06;10.70;;;6.93;;
67715;SDS011;54508;43.238;25.306;2023-03-23T23:39:33;9.40;;;6.53;;
67715;SDS011;54508;43.238;25.306;2023-03-23T23:42:02;7.75;;;6.68;;
67715;SDS011;54508;43.238;25.306;2023-03-23T23:44:29;8.30;;;6.43;;
67715;SDS011;54508;43.238;25.306;2023-03-23T23:46:55;10.57;;;6.90;;
67715;SDS011;54508;43.238;25.306;2023-03-23T23:49:21;8.43;;;6.57;;
67715;SDS011;54508;43.238;25.306;2023-03-23T23:51:51;8.98;;;7.05;;
67715;SDS011;54508;43.238;25.306;2023-03-23T23:54:17;8.67;;;6.67;;
67715;SDS011;54508;43.238;25.306;2023-03-23T23:56:47;10.13;;;6.95;;
67715;SDS011;54508;43.238;25.306;2023-03-23T23:59:15;8.85;;;6.60;;
